createdAt,value
2023-04-13T00:01:13.729Z,95312.41
2023-04-13T00:03:46.345Z,95206.41
2023-04-13T00:06:14.584Z,95310.38
2023-04-13T00:08:45.536Z,95305.28
2023-04-13T00:11:18.989Z,95294.03
2023-04-13T00:13:48.064Z,95319.72
2023-04-13T00:16:18.439Z,95316.06
2023-04-13T00:18:49.625Z,95317.97
2023-04-13T00:21:28.368Z,95322.13
2023-04-13T00:24:02.671Z,95336.34
2023-04-13T00:26:32.108Z,95334.97
2023-04-13T00:29:02.892Z,95334.41
2023-04-13T00:31:30.894Z,95336.53
2023-04-13T00:34:00.535Z,95333.47
2023-04-13T00:36:30.874Z,95320.84
2023-04-13T00:39:00.003Z,95332.59
2023-04-13T00:41:30.585Z,95299.50
2023-04-13T00:44:02.869Z,95315.41
2023-04-13T00:46:36.510Z,95309.91
2023-04-13T00:49:08.917Z,95304.75
2023-04-13T00:51:41.117Z,95304.63
2023-04-13T00:54:09.724Z,95302.28
2023-04-13T00:56:40.859Z,95305.41
2023-04-13T00:59:11.444Z,95311.78
2023-04-13T01:01:47.254Z,95306.75
2023-04-13T01:04:20.141Z,95314.41
2023-04-13T01:06:57.339Z,95255.72
2023-04-13T01:09:30.977Z,95321.22
2023-04-13T01:12:08.423Z,95310.63
2023-04-13T01:14:46.473Z,95315.91
2023-04-13T01:17:23.564Z,95320.63
2023-04-13T01:19:57.398Z,95252.22
2023-04-13T01:22:35.008Z,95319.78
2023-04-13T01:25:22.547Z,95319.38
2023-04-13T01:27:55.526Z,95309.41
2023-04-13T01:30:28.795Z,95323.13
2023-04-13T01:32:59.064Z,95265.84
2023-04-13T01:35:31.533Z,95314.50
2023-04-13T01:38:05.516Z,95311.63
2023-04-13T01:40:37.095Z,95310.78
2023-04-13T01:43:14.458Z,95294.09
2023-04-13T01:45:48.929Z,95304.66
2023-04-13T01:48:27.839Z,95308.47
2023-04-13T01:51:01.412Z,95304.53
2023-04-13T01:53:35.117Z,95280.63
2023-04-13T01:56:20.532Z,95373.31
2023-04-13T01:58:56.698Z,95293.94
2023-04-13T02:01:25.562Z,95298.53
2023-04-13T02:04:03.916Z,95299.81
2023-04-13T02:06:32.779Z,95293.91
2023-04-13T02:09:01.818Z,95291.06
2023-04-13T02:11:37.528Z,95309.47
2023-04-13T02:14:10.709Z,95292.91
2023-04-13T02:16:45.106Z,95298.97
2023-04-13T02:19:13.964Z,95296.84
2023-04-13T02:21:44.840Z,95292.38
2023-04-13T02:24:15.198Z,95302.81
2023-04-13T02:26:56.072Z,95292.94
2023-04-13T02:29:26.240Z,95291.50
2023-04-13T02:32:20.655Z,95300.44
2023-04-13T02:34:49.792Z,95296.09
2023-04-13T02:37:19.400Z,95293.31
2023-04-13T02:39:47.935Z,95254.03
2023-04-13T02:42:16.486Z,95286.16
2023-04-13T02:44:46.353Z,95277.28
2023-04-13T02:47:14.692Z,95291.44
2023-04-13T02:49:43.412Z,95293.22
2023-04-13T02:52:11.715Z,95269.06
2023-04-13T02:54:39.535Z,95289.59
2023-04-13T02:57:10.665Z,95282.03
2023-04-13T02:59:42.045Z,95285.09
2023-04-13T03:02:17.399Z,95280.81
2023-04-13T03:04:45.778Z,95284.25
2023-04-13T03:07:14.666Z,95282.75
2023-04-13T03:09:42.869Z,95301.03
2023-04-13T03:12:13.969Z,95292.31
2023-04-13T03:14:42.282Z,95305.22
2023-04-13T03:17:16.313Z,95308.63
2023-04-13T03:19:47.181Z,95316.47
2023-04-13T03:22:17.897Z,95309.41
2023-04-13T03:24:48.923Z,95361.25
2023-04-13T03:27:28.173Z,95312.13
2023-04-13T03:30:11.582Z,95324.94
2023-04-13T03:32:41.259Z,95335.25
2023-04-13T03:35:11.320Z,95333.28
2023-04-13T03:37:43.701Z,95346.16
2023-04-13T03:40:17.923Z,95351.72
2023-04-13T03:42:53.359Z,95347.50
2023-04-13T03:45:21.924Z,95357.50
2023-04-13T03:47:56.089Z,95315.22
2023-04-13T03:50:28.630Z,95226.94
2023-04-13T03:53:01.408Z,95358.84
2023-04-13T03:55:29.190Z,95359.66
2023-04-13T03:58:01.723Z,95354.63
2023-04-13T04:00:30.136Z,95352.38
2023-04-13T04:03:01.958Z,95094.63
2023-04-13T04:05:30.092Z,95338.41
2023-04-13T04:07:58.154Z,95311.69
2023-04-13T04:10:25.922Z,95336.66
2023-04-13T04:12:55.191Z,95322.44
2023-04-13T04:15:23.267Z,95342.47
2023-04-13T04:17:51.404Z,95331.28
2023-04-13T04:20:22.646Z,95343.72
2023-04-13T04:23:01.351Z,95352.25
2023-04-13T04:25:30.986Z,95346.03
2023-04-13T04:28:02.942Z,95353.97
2023-04-13T04:30:35.480Z,95360.84
2023-04-13T04:33:07.984Z,95369.75
2023-04-13T04:35:43.612Z,95360.81
2023-04-13T04:38:13.926Z,95368.16
2023-04-13T04:40:45.516Z,95373.31
2023-04-13T04:43:14.864Z,95373.03
2023-04-13T04:45:43.833Z,95379.84
2023-04-13T04:48:12.203Z,95304.69
2023-04-13T04:50:45.631Z,95382.69
2023-04-13T04:53:14.356Z,95383.34
2023-04-13T04:55:46.501Z,95370.63
2023-04-13T04:58:15.837Z,95385.31
2023-04-13T05:00:44.218Z,95390.25
2023-04-13T05:03:13.076Z,95385.75
2023-04-13T05:05:44.302Z,95323.66
2023-04-13T05:08:14.151Z,95364.59
2023-04-13T05:10:45.523Z,95388.34
2023-04-13T05:13:16.759Z,95381.69
2023-04-13T05:15:45.634Z,95387.38
2023-04-13T05:18:16.050Z,95385.53
2023-04-13T05:20:51.008Z,95394.97
2023-04-13T05:23:26.745Z,95387.13
2023-04-13T05:25:57.431Z,95362.75
2023-04-13T05:28:27.276Z,95398.97
2023-04-13T05:30:57.555Z,95397.69
2023-04-13T05:33:28.654Z,95379.06
2023-04-13T05:36:01.968Z,95386.75
2023-04-13T05:38:31.228Z,95388.09
2023-04-13T05:40:59.612Z,95291.41
2023-04-13T05:43:28.943Z,95398.91
2023-04-13T05:45:57.581Z,95401.53
2023-04-13T05:48:27.558Z,95385.75
2023-04-13T05:50:59.251Z,95324.25
2023-04-13T05:53:28.502Z,95396.81
2023-04-13T05:55:56.993Z,95394.09
2023-04-13T05:58:29.472Z,95400.50
2023-04-13T06:01:00.349Z,95398.91
2023-04-13T06:03:29.921Z,95400.50
2023-04-13T06:06:05.639Z,95381.75
2023-04-13T06:08:33.848Z,95407.91
2023-04-13T06:11:04.821Z,95411.41
2023-04-13T06:13:36.905Z,95418.25
2023-04-13T06:16:07.444Z,95410.59
2023-04-13T06:18:41.849Z,95375.50
2023-04-13T06:21:11.673Z,95372.28
2023-04-13T06:23:39.748Z,95412.31
2023-04-13T06:26:09.142Z,95410.63
2023-04-13T06:28:42.907Z,95411.47
2023-04-13T06:31:13.870Z,95410.22
2023-04-13T06:33:44.023Z,95416.78
2023-04-13T06:36:16.032Z,95396.53
2023-04-13T06:38:46.441Z,95419.34
2023-04-13T06:41:14.881Z,95417.69
2023-04-13T06:43:46.412Z,95401.50
2023-04-13T06:46:15.447Z,95417.72
2023-04-13T06:48:47.239Z,95417.69
2023-04-13T06:51:16.311Z,95411.94
2023-04-13T06:53:44.257Z,95400.16
2023-04-13T06:56:12.451Z,95421.19
2023-04-13T06:58:45.645Z,95421.13
2023-04-13T07:01:16.977Z,95432.91
2023-04-13T07:04:00.303Z,95430.16
2023-04-13T07:06:45.100Z,95418.81
2023-04-13T07:09:26.701Z,95428.03
2023-04-13T07:11:55.242Z,95416.34
2023-04-13T07:14:23.547Z,95444.94
2023-04-13T07:16:56.670Z,95421.59
2023-04-13T07:19:27.381Z,95316.25
2023-04-13T07:21:59.370Z,95425.03
2023-04-13T07:24:31.526Z,95420.72
2023-04-13T07:27:00.172Z,95408.91
2023-04-13T07:29:34.338Z,95418.75
2023-04-13T07:32:09.620Z,95423.81
2023-04-13T07:34:38.122Z,95413.63
2023-04-13T07:37:10.753Z,95422.69
2023-04-13T07:39:40.362Z,95423.31
2023-04-13T07:42:09.537Z,95415.50
2023-04-13T07:44:39.613Z,95414.59
2023-04-13T07:47:10.744Z,95418.53
2023-04-13T07:49:42.793Z,95415.19
2023-04-13T07:52:15.318Z,95407.72
2023-04-13T07:54:47.913Z,95397.44
2023-04-13T07:57:21.615Z,95390.63
2023-04-13T08:00:04.682Z,95416.78
2023-04-13T08:02:38.115Z,95417.72
2023-04-13T08:05:07.819Z,95416.38
2023-04-13T08:07:40.012Z,95417.41
2023-04-13T08:10:10.902Z,95420.41
2023-04-13T08:12:45.518Z,95416.69
2023-04-13T08:15:16.950Z,95402.97
2023-04-13T08:17:47.501Z,95344.09
2023-04-13T08:20:16.515Z,95424.78
2023-04-13T08:22:46.920Z,95308.69
2023-04-13T08:25:18.952Z,95435.66
2023-04-13T08:27:49.796Z,95426.03
2023-04-13T08:30:21.287Z,95423.94
2023-04-13T08:32:51.261Z,95427.56
2023-04-13T08:35:22.856Z,95349.13
2023-04-13T08:37:56.058Z,95439.91
2023-04-13T08:40:24.859Z,95433.34
2023-04-13T08:42:57.631Z,95430.59
2023-04-13T08:45:31.151Z,95179.78
2023-04-13T08:48:04.362Z,95429.94
2023-04-13T08:50:32.573Z,95402.75
2023-04-13T08:53:03.927Z,95214.34
2023-04-13T08:55:35.501Z,95356.53
2023-04-13T08:58:05.376Z,95398.25
2023-04-13T09:00:48.192Z,95436.50
2023-04-13T09:03:22.928Z,95400.16
2023-04-13T09:05:54.401Z,95384.66
2023-04-13T09:08:24.647Z,95424.56
2023-04-13T09:10:53.341Z,95423.56
2023-04-13T09:13:24.389Z,95426.50
2023-04-13T09:15:57.097Z,95368.97
2023-04-13T09:18:27.087Z,95434.31
2023-04-13T09:21:02.470Z,95430.97
2023-04-13T09:23:32.922Z,95438.72
2023-04-13T09:26:25.992Z,95440.38
2023-04-13T09:29:03.332Z,95432.88
2023-04-13T09:31:34.873Z,95426.38
2023-04-13T09:34:03.230Z,95427.41
2023-04-13T09:36:46.319Z,95426.41
2023-04-13T09:39:33.368Z,95435.56
2023-04-13T09:42:12.348Z,95428.00
2023-04-13T09:44:42.201Z,95434.16
2023-04-13T09:47:12.872Z,95430.19
2023-04-13T09:49:47.243Z,95427.00
2023-04-13T09:52:23.561Z,95432.66
2023-04-13T09:54:55.209Z,95429.34
2023-04-13T09:57:27.610Z,95429.06
2023-04-13T10:00:00.620Z,95424.19
2023-04-13T10:02:29.660Z,95427.97
2023-04-13T10:05:03.047Z,95400.28
2023-04-13T10:07:37.303Z,95433.84
2023-04-13T10:10:09.713Z,95431.75
2023-04-13T10:12:39.034Z,95430.56
2023-04-13T10:15:20.509Z,95433.34
2023-04-13T10:17:57.406Z,95426.72
2023-04-13T10:20:28.001Z,95406.16
2023-04-13T10:22:59.768Z,95422.13
2023-04-13T10:25:34.586Z,95422.03
2023-04-13T10:28:09.029Z,95420.56
2023-04-13T10:30:51.336Z,95381.66
2023-04-13T10:33:23.271Z,95415.03
2023-04-13T10:36:01.917Z,95410.59
2023-04-13T10:38:42.162Z,95417.66
2023-04-13T10:41:15.411Z,95408.03
2023-04-13T10:43:46.624Z,95415.75
2023-04-13T10:46:19.737Z,95389.06
2023-04-13T10:49:00.217Z,95379.78
2023-04-13T10:51:37.456Z,95402.97
2023-04-13T10:54:05.811Z,95411.00
2023-04-13T10:56:37.408Z,95189.31
2023-04-13T10:59:05.803Z,95439.88
2023-04-13T11:01:37.652Z,95450.00
2023-04-13T11:04:10.956Z,95440.09
2023-04-13T11:06:49.731Z,95460.47
2023-04-13T11:09:24.033Z,95447.41
2023-04-13T11:11:56.366Z,95447.69
2023-04-13T11:14:27.011Z,95439.00
2023-04-13T11:16:58.441Z,95444.47
2023-04-13T11:19:27.615Z,95428.50
2023-04-13T11:21:58.074Z,95438.91
2023-04-13T11:24:34.415Z,95438.94
2023-04-13T11:27:05.270Z,95448.25
2023-04-13T11:29:34.471Z,95436.78
2023-04-13T11:32:16.585Z,95361.13
2023-04-13T11:34:51.719Z,95446.75
2023-04-13T11:37:20.393Z,95414.84
2023-04-13T11:39:52.837Z,95435.88
2023-04-13T11:42:22.679Z,95429.59
2023-04-13T11:44:54.594Z,95419.03
2023-04-13T11:47:23.086Z,95421.72
2023-04-13T11:49:51.900Z,95426.81
2023-04-13T11:52:20.437Z,95419.88
2023-04-13T11:54:52.015Z,95409.09
2023-04-13T11:57:29.145Z,95403.16
2023-04-13T11:59:57.371Z,95396.19
2023-04-13T12:02:29.796Z,95402.00
2023-04-13T12:05:01.714Z,95389.53
2023-04-13T12:07:31.128Z,95378.25
2023-04-13T12:10:05.295Z,95387.75
2023-04-13T12:15:26.295Z,95378.34
2023-04-13T12:18:02.622Z,95132.38
2023-04-13T12:20:40.149Z,95393.53
2023-04-13T12:23:22.835Z,95355.38
2023-04-13T12:25:56.914Z,95359.25
2023-04-13T12:28:34.968Z,95399.09
2023-04-13T12:31:10.585Z,95408.56
2023-04-13T12:33:38.878Z,95414.47
2023-04-13T12:36:11.683Z,95416.53
2023-04-13T12:38:41.276Z,95415.16
2023-04-13T12:41:12.605Z,95415.00
2023-04-13T12:43:44.957Z,95416.41
2023-04-13T12:46:13.514Z,95411.00
2023-04-13T12:48:41.894Z,95396.13
2023-04-13T12:51:14.129Z,95401.91
2023-04-13T12:53:45.566Z,95383.84
2023-04-13T12:56:14.420Z,95327.25
2023-04-13T12:58:48.620Z,95371.81
2023-04-13T13:01:16.747Z,95387.53
2023-04-13T13:03:48.134Z,95418.13
2023-04-13T13:06:16.374Z,95390.03
2023-04-13T13:08:44.434Z,95370.84
2023-04-13T13:11:12.889Z,95389.53
2023-04-13T13:13:41.537Z,95369.53
2023-04-13T13:16:11.281Z,95392.84
2023-04-13T13:18:51.526Z,95399.06
2023-04-13T13:21:21.526Z,95394.25
2023-04-13T13:23:50.039Z,95390.72
2023-04-13T13:26:39.474Z,95394.81
2023-04-13T13:29:19.580Z,95374.34
2023-04-13T13:31:52.847Z,95391.75
2023-04-13T13:34:24.509Z,95398.25
2023-04-13T13:37:00.676Z,95394.91
2023-04-13T13:39:32.705Z,95392.97
2023-04-13T13:42:03.098Z,95403.03
2023-04-13T13:44:32.131Z,95402.59
2023-04-13T13:47:04.914Z,95399.78
2023-04-13T13:49:32.922Z,95412.47
2023-04-13T13:52:01.170Z,95412.09
2023-04-13T13:54:41.904Z,95393.94
2023-04-13T13:57:11.758Z,95412.44
2023-04-13T13:59:52.167Z,95407.75
2023-04-13T14:02:22.446Z,95407.00
2023-04-13T14:04:51.501Z,95407.72
2023-04-13T14:07:20.019Z,95393.13
2023-04-13T14:09:48.170Z,95397.31
2023-04-13T14:12:18.446Z,95411.16
2023-04-13T14:14:49.434Z,95410.41
2023-04-13T14:17:17.563Z,95403.25
2023-04-13T14:19:48.983Z,95408.38
2023-04-13T14:22:17.480Z,95405.47
2023-04-13T14:24:46.809Z,95407.41
2023-04-13T14:27:16.403Z,95384.56
2023-04-13T14:29:47.197Z,95392.84
2023-04-13T14:32:15.861Z,95399.50
2023-04-13T14:34:48.109Z,95403.47
2023-04-13T14:37:23.503Z,95411.13
2023-04-13T14:39:55.026Z,95420.56
2023-04-13T14:42:25.126Z,95429.19
2023-04-13T14:44:54.533Z,95422.81
2023-04-13T14:47:22.839Z,95424.78
2023-04-13T14:50:02.921Z,95426.16
2023-04-13T14:52:32.915Z,95427.19
2023-04-13T14:55:01.564Z,95428.41
2023-04-13T14:57:45.410Z,95435.31
2023-04-13T15:00:26.673Z,95429.84
2023-04-13T15:02:57.411Z,95434.63
2023-04-13T15:05:28.550Z,95442.72
2023-04-13T15:07:59.325Z,95460.47
2023-04-13T15:10:28.638Z,95447.13
2023-04-13T15:12:59.442Z,95454.44
2023-04-13T15:15:28.088Z,95394.13
2023-04-13T15:18:03.709Z,95341.44
2023-04-13T15:20:32.107Z,95437.50
2023-04-13T15:23:04.032Z,95419.81
2023-04-13T15:25:36.005Z,95441.25
2023-04-13T15:28:04.513Z,95435.28
2023-04-13T15:30:35.208Z,95434.16
2023-04-13T15:33:04.464Z,95434.88
2023-04-13T15:35:35.964Z,95432.00
2023-04-13T15:38:05.466Z,95437.06
2023-04-13T15:40:36.238Z,95426.09
2023-04-13T15:43:04.230Z,95426.50
2023-04-13T15:45:33.197Z,95418.50
2023-04-13T15:48:04.071Z,95445.84
2023-04-13T15:50:35.354Z,95438.72
2023-04-13T15:53:15.378Z,95437.78
2023-04-13T15:55:49.842Z,95442.47
2023-04-13T15:58:18.425Z,95365.09
2023-04-13T16:00:49.092Z,95447.84
2023-04-13T16:03:24.610Z,95443.22
2023-04-13T16:05:57.234Z,95456.47
2023-04-13T16:08:35.131Z,95446.72
2023-04-13T16:11:08.278Z,95466.41
2023-04-13T16:16:15.325Z,95474.16
2023-04-13T16:18:48.268Z,95468.34
2023-04-13T16:21:20.384Z,95478.75
2023-04-13T16:23:48.888Z,95487.06
2023-04-13T16:26:18.168Z,95489.84
2023-04-13T16:28:47.068Z,95493.66
2023-04-13T16:31:17.507Z,95187.97
2023-04-13T16:33:47.463Z,95495.59
2023-04-13T16:36:18.502Z,95474.03
2023-04-13T16:38:50.494Z,95494.84
2023-04-13T16:41:20.441Z,95498.78
2023-04-13T16:43:53.984Z,95510.38
2023-04-13T16:46:27.450Z,95504.75
2023-04-13T16:48:58.163Z,95502.94
2023-04-13T16:51:28.044Z,95503.03
2023-04-13T16:53:58.769Z,95511.28
2023-04-13T16:56:32.785Z,95512.88
2023-04-13T16:59:02.643Z,95521.00
2023-04-13T17:01:39.817Z,95525.13
2023-04-13T17:04:08.264Z,95510.28
2023-04-13T17:06:41.388Z,95536.56
2023-04-13T17:09:15.396Z,95528.59
2023-04-13T17:11:56.014Z,95538.16
2023-04-13T17:14:25.884Z,95390.81
2023-04-13T17:16:54.277Z,95523.56
2023-04-13T17:19:23.614Z,95559.13
2023-04-13T17:21:54.863Z,95572.44
2023-04-13T17:24:23.701Z,95575.53
2023-04-13T17:26:53.974Z,95585.06
2023-04-13T17:29:22.413Z,95575.84
2023-04-13T17:31:50.668Z,95607.03
2023-04-13T17:34:23.093Z,95633.97
2023-04-13T17:36:51.825Z,95642.09
2023-04-13T17:39:21.026Z,95633.81
2023-04-13T17:41:52.429Z,95632.53
2023-04-13T17:44:25.615Z,95617.88
2023-04-13T17:46:54.625Z,95606.56
2023-04-13T17:49:26.236Z,95605.06
2023-04-13T17:51:54.620Z,95607.84
2023-04-13T17:54:26.257Z,95596.03
2023-04-13T17:57:01.173Z,95593.38
2023-04-13T17:59:36.528Z,95591.66
2023-04-13T18:02:07.282Z,95590.34
2023-04-13T18:04:37.890Z,95592.22
2023-04-13T18:07:10.234Z,95597.25
2023-04-13T18:09:39.155Z,95600.97
2023-04-13T18:12:09.900Z,95559.63
2023-04-13T18:14:42.568Z,95580.09
2023-04-13T18:17:11.026Z,95604.53
2023-04-13T18:19:44.057Z,95567.97
2023-04-13T18:22:15.214Z,95515.13
2023-04-13T18:24:49.140Z,95575.81
2023-04-13T18:27:37.334Z,95581.25
2023-04-13T18:30:10.620Z,95606.88
2023-04-13T18:32:39.274Z,95609.44
2023-04-13T18:35:10.397Z,95592.50
2023-04-13T18:37:41.683Z,95593.13
2023-04-13T18:40:11.141Z,95603.94
2023-04-13T18:42:42.150Z,95585.16
2023-04-13T18:45:14.631Z,95607.56
2023-04-13T18:47:42.939Z,95608.56
2023-04-13T18:50:17.126Z,95599.63
2023-04-13T18:52:46.720Z,95613.47
2023-04-13T18:55:18.025Z,95553.75
2023-04-13T18:57:55.193Z,95365.78
2023-04-13T19:00:30.090Z,95607.72
2023-04-13T19:03:01.052Z,95624.81
2023-04-13T19:05:37.000Z,95618.63
2023-04-13T19:08:15.610Z,95624.13
2023-04-13T19:10:45.372Z,95627.59
2023-04-13T19:13:15.177Z,95626.69
2023-04-13T19:15:50.021Z,95623.81
2023-04-13T19:18:21.304Z,95624.16
2023-04-13T19:20:52.806Z,95614.88
2023-04-13T19:23:20.683Z,95622.22
2023-04-13T19:25:49.404Z,95619.75
2023-04-13T19:28:20.729Z,95618.66
2023-04-13T19:30:50.045Z,95621.69
2023-04-13T19:33:17.752Z,95621.66
2023-04-13T19:35:51.048Z,95610.00
2023-04-13T19:38:19.005Z,95616.13
2023-04-13T19:40:49.209Z,95626.97
2023-04-13T19:43:23.662Z,95630.72
2023-04-13T19:45:54.508Z,95638.75
2023-04-13T19:48:28.873Z,95639.38
2023-04-13T19:51:00.051Z,95607.25
2023-04-13T19:53:31.145Z,95619.88
2023-04-13T19:56:04.558Z,95641.06
2023-04-13T19:58:36.243Z,95636.88
2023-04-13T20:01:10.008Z,95643.66
2023-04-13T20:03:46.375Z,95581.44
2023-04-13T20:06:28.503Z,95657.06
2023-04-13T20:08:56.912Z,95595.03
2023-04-13T20:11:25.157Z,95646.34
2023-04-13T20:13:57.756Z,95635.75
2023-04-13T20:16:27.816Z,95637.59
2023-04-13T20:18:56.844Z,95645.69
2023-04-13T20:21:38.778Z,95612.03
2023-04-13T20:24:10.461Z,95645.72
2023-04-13T20:26:48.985Z,95599.63
2023-04-13T20:29:24.213Z,95641.34
2023-04-13T20:31:58.011Z,95645.16
2023-04-13T20:34:29.148Z,95461.94
2023-04-13T20:37:00.258Z,95676.59
2023-04-13T20:39:30.008Z,95660.44
2023-04-13T20:42:07.980Z,95657.81
2023-04-13T20:44:38.429Z,95658.38
2023-04-13T20:47:13.920Z,95688.72
2023-04-13T20:49:47.105Z,95635.00
2023-04-13T20:52:18.989Z,95675.22
2023-04-13T20:54:47.467Z,95651.47
2023-04-13T20:57:21.117Z,95663.38
2023-04-13T20:59:52.133Z,95671.22
2023-04-13T21:02:24.781Z,95662.22
2023-04-13T21:04:56.933Z,95658.16
2023-04-13T21:07:26.327Z,95655.63
2023-04-13T21:09:54.776Z,95654.41
2023-04-13T21:12:23.564Z,95639.31
2023-04-13T21:14:53.189Z,95651.06
2023-04-13T21:17:24.830Z,95645.06
2023-04-13T21:19:54.030Z,95643.53
2023-04-13T21:22:29.661Z,95641.66
2023-04-13T21:24:59.480Z,95641.63
2023-04-13T21:27:34.514Z,95629.66
2023-04-13T21:30:03.701Z,95639.63
2023-04-13T21:32:39.414Z,95633.41
2023-04-13T21:35:10.572Z,95639.59
2023-04-13T21:37:41.744Z,95633.00
2023-04-13T21:40:29.099Z,95636.16
2023-04-13T21:42:57.275Z,95630.41
2023-04-13T21:45:25.955Z,95639.25
2023-04-13T21:47:55.883Z,95643.00
2023-04-13T21:50:28.241Z,95647.19
2023-04-13T21:53:01.169Z,95639.31
2023-04-13T21:55:32.223Z,95649.84
2023-04-13T21:58:02.844Z,95402.63
2023-04-13T22:00:31.020Z,95651.84
2023-04-13T22:03:01.661Z,95652.84
2023-04-13T22:05:30.807Z,95641.00
2023-04-13T22:07:59.097Z,95636.94
2023-04-13T22:10:27.809Z,95647.84
2023-04-13T22:12:56.533Z,95644.19
2023-04-13T22:15:26.396Z,95627.84
2023-04-13T22:17:57.955Z,95631.00
2023-04-13T22:20:27.749Z,95600.75
2023-04-13T22:22:57.544Z,95603.09
2023-04-13T22:25:28.940Z,95623.63
2023-04-13T22:28:00.444Z,95644.75
2023-04-13T22:30:29.337Z,95619.47
2023-04-13T22:32:59.086Z,95655.81
2023-04-13T22:35:47.103Z,95612.59
2023-04-13T22:38:15.172Z,95654.16
2023-04-13T22:40:48.609Z,95655.16
2023-04-13T22:43:18.937Z,95658.06
2023-04-13T22:45:47.248Z,95658.75
2023-04-13T22:48:17.406Z,95663.78
2023-04-13T22:51:01.650Z,95667.44
2023-04-13T22:53:31.835Z,95664.13
2023-04-13T22:56:01.171Z,95655.25
2023-04-13T22:58:32.088Z,95581.28
2023-04-13T23:01:00.672Z,95657.41
2023-04-13T23:03:33.881Z,95654.22
2023-04-13T23:06:09.736Z,95652.63
2023-04-13T23:08:40.422Z,95653.16
2023-04-13T23:11:13.261Z,95534.72
2023-04-13T23:14:02.546Z,95656.84
2023-04-13T23:16:34.115Z,95647.13
2023-04-13T23:19:02.617Z,95648.44
2023-04-13T23:21:33.841Z,95652.13
2023-04-13T23:24:05.958Z,95648.38
2023-04-13T23:26:38.648Z,95651.56
2023-04-13T23:29:08.014Z,95615.22
2023-04-13T23:31:39.268Z,95597.34
2023-04-13T23:34:07.930Z,95628.16
2023-04-13T23:36:38.999Z,95643.97
2023-04-13T23:39:10.276Z,95647.59
2023-04-13T23:41:41.313Z,95646.81
2023-04-13T23:44:11.434Z,95607.88
2023-04-13T23:46:39.802Z,95554.09
2023-04-13T23:49:07.987Z,95650.50
2023-04-13T23:51:41.372Z,95644.59
2023-04-13T23:54:09.776Z,95643.63
2023-04-13T23:56:39.026Z,95593.69
2023-04-13T23:59:21.493Z,95641.25
